sensor_id;sensor_type;location;lat;lon;timestamp;temperature;humidity
47482;DHT22;33219;47.410;9.730;2023-04-29T00:01:39;11.80;99.90
47482;DHT22;33219;47.410;9.730;2023-04-29T00:04:07;11.80;99.90
47482;DHT22;33219;47.410;9.730;2023-04-29T00:06:34;11.80;99.90
47482;DHT22;33219;47.410;9.730;2023-04-29T00:09:02;11.80;99.90
47482;DHT22;33219;47.410;9.730;2023-04-29T00:11:30;11.80;99.90
47482;DHT22;33219;47.410;9.730;2023-04-29T00:13:57;11.80;99.90
47482;DHT22;33219;47.410;9.730;2023-04-29T00:16:25;11.80;99.90
47482;DHT22;33219;47.410;9.730;2023-04-29T00:18:52;11.70;99.90
47482;DHT22;33219;47.410;9.730;2023-04-29T00:21:20;11.80;99.90
47482;DHT22;33219;47.410;9.730;2023-04-29T00:23:48;11.70;99.90
47482;DHT22;33219;47.410;9.730;2023-04-29T00:26:16;11.80;99.90
47482;DHT22;33219;47.410;9.730;2023-04-29T00:28:44;11.80;99.90
47482;DHT22;33219;47.410;9.730;2023-04-29T00:31:11;11.80;99.90
47482;DHT22;33219;47.410;9.730;2023-04-29T00:33:39;11.90;99.90
47482;DHT22;33219;47.410;9.730;2023-04-29T00:36:07;11.90;99.90
47482;DHT22;33219;47.410;9.730;2023-04-29T00:38:35;11.80;99.90
47482;DHT22;33219;47.410;9.730;2023-04-29T00:41:03;11.80;99.90
47482;DHT22;33219;47.410;9.730;2023-04-29T00:43:30;11.80;99.90
47482;DHT22;33219;47.410;9.730;2023-04-29T00:45:58;11.80;99.90
47482;DHT22;33219;47.410;9.730;2023-04-29T00:48:28;11.80;99.90
47482;DHT22;33219;47.410;9.730;2023-04-29T00:50:56;11.80;99.90
47482;DHT22;33219;47.410;9.730;2023-04-29T00:53:23;11.80;99.90
47482;DHT22;33219;47.410;9.730;2023-04-29T00:55:51;11.80;99.90
47482;DHT22;33219;47.410;9.730;2023-04-29T00:58:19;11.80;99.90
47482;DHT22;33219;47.410;9.730;2023-04-29T01:00:48;11.80;99.90
47482;DHT22;33219;47.410;9.730;2023-04-29T01:03:15;11.80;99.90
47482;DHT22;33219;47.410;9.730;2023-04-29T01:05:45;11.80;99.90
47482;DHT22;33219;47.410;9.730;2023-04-29T01:08:32;11.80;99.90
47482;DHT22;33219;47.410;9.730;2023-04-29T01:11:08;11.80;99.90
47482;DHT22;33219;47.410;9.730;2023-04-29T01:13:57;11.80;99.90
47482;DHT22;33219;47.410;9.730;2023-04-29T01:16:29;11.70;99.90
47482;DHT22;33219;47.410;9.730;2023-04-29T01:18:58;11.70;99.90
47482;DHT22;33219;47.410;9.730;2023-04-29T01:21:27;11.60;99.90
47482;DHT22;33219;47.410;9.730;2023-04-29T01:23:56;11.70;99.90
47482;DHT22;33219;47.410;9.730;2023-04-29T01:26:25;11.70;99.90
47482;DHT22;33219;47.410;9.730;2023-04-29T01:31:53;11.70;99.90
47482;DHT22;33219;47.410;9.730;2023-04-29T01:34:30;11.70;99.90
47482;DHT22;33219;47.410;9.730;2023-04-29T01:37:09;11.70;99.90
47482;DHT22;33219;47.410;9.730;2023-04-29T01:44:54;11.60;99.90
47482;DHT22;33219;47.410;9.730;2023-04-29T01:47:24;11.60;99.90
47482;DHT22;33219;47.410;9.730;2023-04-29T01:49:52;11.60;99.90
47482;DHT22;33219;47.410;9.730;2023-04-29T01:52:19;11.60;99.90
47482;DHT22;33219;47.410;9.730;2023-04-29T01:54:48;11.60;99.90
47482;DHT22;33219;47.410;9.730;2023-04-29T01:57:16;11.60;99.90
47482;DHT22;33219;47.410;9.730;2023-04-29T01:59:43;11.50;99.90
47482;DHT22;33219;47.410;9.730;2023-04-29T02:02:11;11.50;99.90
47482;DHT22;33219;47.410;9.730;2023-04-29T02:04:40;11.60;99.90
47482;DHT22;33219;47.410;9.730;2023-04-29T02:07:09;11.60;99.90
47482;DHT22;33219;47.410;9.730;2023-04-29T02:09:36;11.60;99.90
47482;DHT22;33219;47.410;9.730;2023-04-29T02:12:04;11.60;99.90
47482;DHT22;33219;47.410;9.730;2023-04-29T02:14:32;11.60;99.90
47482;DHT22;33219;47.410;9.730;2023-04-29T02:17:00;11.60;99.90
47482;DHT22;33219;47.410;9.730;2023-04-29T02:19:28;11.60;99.90
47482;DHT22;33219;47.410;9.730;2023-04-29T02:21:55;11.70;99.90
47482;DHT22;33219;47.410;9.730;2023-04-29T02:24:23;11.70;99.90
47482;DHT22;33219;47.410;9.730;2023-04-29T02:26:50;11.60;99.90
47482;DHT22;33219;47.410;9.730;2023-04-29T02:29:18;11.60;99.90
47482;DHT22;33219;47.410;9.730;2023-04-29T02:31:46;11.60;99.90
47482;DHT22;33219;47.410;9.730;2023-04-29T02:34:14;11.60;99.90
47482;DHT22;33219;47.410;9.730;2023-04-29T02:36:41;11.60;99.90
47482;DHT22;33219;47.410;9.730;2023-04-29T02:39:09;11.60;99.90
47482;DHT22;33219;47.410;9.730;2023-04-29T02:41:36;11.60;99.90
47482;DHT22;33219;47.410;9.730;2023-04-29T02:44:04;11.60;99.90
47482;DHT22;33219;47.410;9.730;2023-04-29T02:46:32;11.60;99.90
47482;DHT22;33219;47.410;9.730;2023-04-29T02:49:01;11.60;99.90
47482;DHT22;33219;47.410;9.730;2023-04-29T02:51:29;11.60;99.90
47482;DHT22;33219;47.410;9.730;2023-04-29T02:53:57;11.60;99.90
47482;DHT22;33219;47.410;9.730;2023-04-29T02:56:24;11.60;99.90
47482;DHT22;33219;47.410;9.730;2023-04-29T02:58:52;11.60;99.90
47482;DHT22;33219;47.410;9.730;2023-04-29T03:01:19;11.60;99.90
47482;DHT22;33219;47.410;9.730;2023-04-29T03:03:47;11.60;99.90
47482;DHT22;33219;47.410;9.730;2023-04-29T03:06:15;11.60;99.90
47482;DHT22;33219;47.410;9.730;2023-04-29T03:08:42;11.60;99.90
47482;DHT22;33219;47.410;9.730;2023-04-29T03:11:10;11.60;99.90
47482;DHT22;33219;47.410;9.730;2023-04-29T03:13:38;11.60;99.90
47482;DHT22;33219;47.410;9.730;2023-04-29T03:16:05;11.50;99.90
47482;DHT22;33219;47.410;9.730;2023-04-29T03:18:34;11.60;99.90
47482;DHT22;33219;47.410;9.730;2023-04-29T03:21:01;11.60;99.90
47482;DHT22;33219;47.410;9.730;2023-04-29T03:23:30;11.60;99.90
47482;DHT22;33219;47.410;9.730;2023-04-29T03:25:57;11.60;99.90
47482;DHT22;33219;47.410;9.730;2023-04-29T03:28:26;11.60;99.90
47482;DHT22;33219;47.410;9.730;2023-04-29T03:30:53;11.60;99.90
47482;DHT22;33219;47.410;9.730;2023-04-29T03:33:22;11.60;99.90
47482;DHT22;33219;47.410;9.730;2023-04-29T03:35:49;11.60;99.90
47482;DHT22;33219;47.410;9.730;2023-04-29T03:38:17;11.50;99.90
47482;DHT22;33219;47.410;9.730;2023-04-29T03:40:45;11.50;99.90
47482;DHT22;33219;47.410;9.730;2023-04-29T03:43:12;11.50;99.90
47482;DHT22;33219;47.410;9.730;2023-04-29T03:45:40;11.50;99.90
47482;DHT22;33219;47.410;9.730;2023-04-29T03:48:07;11.50;99.90
47482;DHT22;33219;47.410;9.730;2023-04-29T03:50:35;11.60;99.90
47482;DHT22;33219;47.410;9.730;2023-04-29T03:53:03;11.50;99.90
47482;DHT22;33219;47.410;9.730;2023-04-29T03:55:31;11.60;99.90
47482;DHT22;33219;47.410;9.730;2023-04-29T03:57:58;11.50;99.90
47482;DHT22;33219;47.410;9.730;2023-04-29T04:00:26;11.50;99.90
47482;DHT22;33219;47.410;9.730;2023-04-29T04:02:56;11.50;99.90
47482;DHT22;33219;47.410;9.730;2023-04-29T04:05:24;11.50;99.90
47482;DHT22;33219;47.410;9.730;2023-04-29T04:07:52;11.50;99.90
47482;DHT22;33219;47.410;9.730;2023-04-29T04:10:20;11.50;99.90
47482;DHT22;33219;47.410;9.730;2023-04-29T04:12:48;11.50;99.90
47482;DHT22;33219;47.410;9.730;2023-04-29T04:15:15;11.50;99.90
47482;DHT22;33219;47.410;9.730;2023-04-29T04:17:43;11.50;99.90
47482;DHT22;33219;47.410;9.730;2023-04-29T04:20:11;11.50;99.90
47482;DHT22;33219;47.410;9.730;2023-04-29T04:22:39;11.50;99.90
47482;DHT22;33219;47.410;9.730;2023-04-29T04:25:07;11.50;99.90
47482;DHT22;33219;47.410;9.730;2023-04-29T04:27:35;11.50;99.90
47482;DHT22;33219;47.410;9.730;2023-04-29T04:30:03;11.50;99.90
47482;DHT22;33219;47.410;9.730;2023-04-29T04:32:30;11.50;99.90
47482;DHT22;33219;47.410;9.730;2023-04-29T04:34:58;11.50;99.90
47482;DHT22;33219;47.410;9.730;2023-04-29T04:37:25;11.50;99.90
47482;DHT22;33219;47.410;9.730;2023-04-29T04:39:53;11.50;99.90
47482;DHT22;33219;47.410;9.730;2023-04-29T04:42:21;11.50;99.90
47482;DHT22;33219;47.410;9.730;2023-04-29T04:44:49;11.50;99.90
47482;DHT22;33219;47.410;9.730;2023-04-29T04:47:16;11.60;99.90
47482;DHT22;33219;47.410;9.730;2023-04-29T04:49:44;11.60;99.90
47482;DHT22;33219;47.410;9.730;2023-04-29T04:52:12;11.60;99.90
47482;DHT22;33219;47.410;9.730;2023-04-29T04:54:39;11.70;99.90
47482;DHT22;33219;47.410;9.730;2023-04-29T04:57:07;11.70;99.90
47482;DHT22;33219;47.410;9.730;2023-04-29T04:59:34;11.80;99.90
47482;DHT22;33219;47.410;9.730;2023-04-29T05:02:02;11.80;99.90
47482;DHT22;33219;47.410;9.730;2023-04-29T05:04:30;11.80;99.90
47482;DHT22;33219;47.410;9.730;2023-04-29T05:06:57;11.80;99.90
47482;DHT22;33219;47.410;9.730;2023-04-29T05:09:25;11.90;99.90
47482;DHT22;33219;47.410;9.730;2023-04-29T05:11:52;12.00;99.90
47482;DHT22;33219;47.410;9.730;2023-04-29T05:14:20;12.00;99.90
47482;DHT22;33219;47.410;9.730;2023-04-29T05:16:47;12.10;99.90
47482;DHT22;33219;47.410;9.730;2023-04-29T05:19:17;12.10;99.90
47482;DHT22;33219;47.410;9.730;2023-04-29T05:21:47;12.00;99.90
47482;DHT22;33219;47.410;9.730;2023-04-29T05:24:15;12.20;99.90
47482;DHT22;33219;47.410;9.730;2023-04-29T05:26:42;12.40;99.90
47482;DHT22;33219;47.410;9.730;2023-04-29T05:29:10;12.50;99.90
47482;DHT22;33219;47.410;9.730;2023-04-29T05:31:38;12.60;99.90
47482;DHT22;33219;47.410;9.730;2023-04-29T05:34:08;12.60;99.90
47482;DHT22;33219;47.410;9.730;2023-04-29T05:36:36;12.60;99.90
47482;DHT22;33219;47.410;9.730;2023-04-29T05:39:04;12.70;99.90
47482;DHT22;33219;47.410;9.730;2023-04-29T05:41:31;12.90;99.90
47482;DHT22;33219;47.410;9.730;2023-04-29T05:43:59;13.00;99.90
47482;DHT22;33219;47.410;9.730;2023-04-29T05:46:26;13.20;99.90
47482;DHT22;33219;47.410;9.730;2023-04-29T05:48:54;13.20;99.90
47482;DHT22;33219;47.410;9.730;2023-04-29T05:51:21;13.30;99.90
47482;DHT22;33219;47.410;9.730;2023-04-29T05:53:49;13.40;99.90
47482;DHT22;33219;47.410;9.730;2023-04-29T05:56:16;13.60;99.90
47482;DHT22;33219;47.410;9.730;2023-04-29T05:58:44;13.50;99.90
47482;DHT22;33219;47.410;9.730;2023-04-29T06:01:12;13.70;99.90
47482;DHT22;33219;47.410;9.730;2023-04-29T06:03:39;13.90;99.90
47482;DHT22;33219;47.410;9.730;2023-04-29T06:06:07;14.00;99.90
47482;DHT22;33219;47.410;9.730;2023-04-29T06:08:35;13.90;99.90
47482;DHT22;33219;47.410;9.730;2023-04-29T06:11:03;14.00;99.90
47482;DHT22;33219;47.410;9.730;2023-04-29T06:13:32;14.00;99.90
47482;DHT22;33219;47.410;9.730;2023-04-29T06:15:59;14.10;99.90
47482;DHT22;33219;47.410;9.730;2023-04-29T06:18:27;14.30;99.90
47482;DHT22;33219;47.410;9.730;2023-04-29T06:20:55;14.40;99.90
47482;DHT22;33219;47.410;9.730;2023-04-29T06:23:22;15.30;99.90
47482;DHT22;33219;47.410;9.730;2023-04-29T06:25:50;16.20;99.90
47482;DHT22;33219;47.410;9.730;2023-04-29T06:28:18;16.40;99.90
47482;DHT22;33219;47.410;9.730;2023-04-29T06:30:46;16.90;99.90
47482;DHT22;33219;47.410;9.730;2023-04-29T06:33:13;17.80;99.90
47482;DHT22;33219;47.410;9.730;2023-04-29T06:35:41;19.10;99.90
47482;DHT22;33219;47.410;9.730;2023-04-29T06:38:11;20.20;99.90
47482;DHT22;33219;47.410;9.730;2023-04-29T06:40:38;20.80;99.90
47482;DHT22;33219;47.410;9.730;2023-04-29T06:43:06;20.70;99.90
47482;DHT22;33219;47.410;9.730;2023-04-29T06:45:34;22.00;99.90
47482;DHT22;33219;47.410;9.730;2023-04-29T06:48:01;22.60;99.90
47482;DHT22;33219;47.410;9.730;2023-04-29T06:50:29;22.70;99.60
47482;DHT22;33219;47.410;9.730;2023-04-29T06:52:57;22.70;98.30
47482;DHT22;33219;47.410;9.730;2023-04-29T06:55:24;22.20;98.70
47482;DHT22;33219;47.410;9.730;2023-04-29T06:57:52;21.80;99.70
47482;DHT22;33219;47.410;9.730;2023-04-29T07:00:19;21.40;99.90
47482;DHT22;33219;47.410;9.730;2023-04-29T07:02:48;20.80;99.90
47482;DHT22;33219;47.410;9.730;2023-04-29T07:05:15;19.80;99.90
47482;DHT22;33219;47.410;9.730;2023-04-29T07:07:43;19.70;99.90
47482;DHT22;33219;47.410;9.730;2023-04-29T07:10:11;20.40;99.90
47482;DHT22;33219;47.410;9.730;2023-04-29T07:12:39;20.40;99.90
47482;DHT22;33219;47.410;9.730;2023-04-29T07:15:07;20.90;99.90
47482;DHT22;33219;47.410;9.730;2023-04-29T07:17:34;21.30;99.90
47482;DHT22;33219;47.410;9.730;2023-04-29T07:20:02;22.50;98.10
47482;DHT22;33219;47.410;9.730;2023-04-29T07:22:30;23.10;98.10
47482;DHT22;33219;47.410;9.730;2023-04-29T07:24:58;24.20;96.00
47482;DHT22;33219;47.410;9.730;2023-04-29T07:27:26;25.40;93.70
47482;DHT22;33219;47.410;9.730;2023-04-29T07:29:55;26.10;92.00
47482;DHT22;33219;47.410;9.730;2023-04-29T07:32:23;26.70;90.30
47482;DHT22;33219;47.410;9.730;2023-04-29T07:34:50;26.80;87.40
47482;DHT22;33219;47.410;9.730;2023-04-29T07:37:18;26.80;87.00
47482;DHT22;33219;47.410;9.730;2023-04-29T07:39:45;26.50;86.10
47482;DHT22;33219;47.410;9.730;2023-04-29T07:42:13;25.10;88.80
47482;DHT22;33219;47.410;9.730;2023-04-29T07:44:41;25.60;87.90
47482;DHT22;33219;47.410;9.730;2023-04-29T07:47:10;25.50;87.00
47482;DHT22;33219;47.410;9.730;2023-04-29T07:49:38;24.50;90.70
47482;DHT22;33219;47.410;9.730;2023-04-29T07:52:07;24.50;90.30
47482;DHT22;33219;47.410;9.730;2023-04-29T07:54:37;24.70;89.70
47482;DHT22;33219;47.410;9.730;2023-04-29T07:57:05;25.60;86.50
47482;DHT22;33219;47.410;9.730;2023-04-29T07:59:32;26.10;86.50
47482;DHT22;33219;47.410;9.730;2023-04-29T08:02:00;25.60;88.00
47482;DHT22;33219;47.410;9.730;2023-04-29T08:04:28;25.00;90.00
47482;DHT22;33219;47.410;9.730;2023-04-29T08:06:55;24.90;91.20
47482;DHT22;33219;47.410;9.730;2023-04-29T08:09:23;23.90;91.60
47482;DHT22;33219;47.410;9.730;2023-04-29T08:11:51;23.70;92.60
47482;DHT22;33219;47.410;9.730;2023-04-29T08:14:18;23.50;92.70
47482;DHT22;33219;47.410;9.730;2023-04-29T08:16:46;23.10;93.10
47482;DHT22;33219;47.410;9.730;2023-04-29T08:19:14;23.30;92.30
47482;DHT22;33219;47.410;9.730;2023-04-29T08:21:41;23.40;92.10
47482;DHT22;33219;47.410;9.730;2023-04-29T08:24:09;23.70;92.30
47482;DHT22;33219;47.410;9.730;2023-04-29T08:26:38;24.10;91.80
47482;DHT22;33219;47.410;9.730;2023-04-29T08:29:06;25.00;90.10
47482;DHT22;33219;47.410;9.730;2023-04-29T08:31:34;25.20;90.10
47482;DHT22;33219;47.410;9.730;2023-04-29T08:34:01;26.00;86.40
47482;DHT22;33219;47.410;9.730;2023-04-29T08:36:29;25.20;88.60
47482;DHT22;33219;47.410;9.730;2023-04-29T08:38:56;24.50;89.80
47482;DHT22;33219;47.410;9.730;2023-04-29T08:41:24;24.10;90.10
47482;DHT22;33219;47.410;9.730;2023-04-29T08:43:52;24.40;90.60
47482;DHT22;33219;47.410;9.730;2023-04-29T08:46:20;24.20;90.50
47482;DHT22;33219;47.410;9.730;2023-04-29T08:48:49;24.30;90.50
47482;DHT22;33219;47.410;9.730;2023-04-29T08:51:18;24.40;90.10
47482;DHT22;33219;47.410;9.730;2023-04-29T08:53:45;24.40;90.10
47482;DHT22;33219;47.410;9.730;2023-04-29T08:56:17;24.80;90.90
47482;DHT22;33219;47.410;9.730;2023-04-29T08:58:47;25.30;89.60
47482;DHT22;33219;47.410;9.730;2023-04-29T09:01:17;25.40;88.40
47482;DHT22;33219;47.410;9.730;2023-04-29T09:04:11;25.90;85.80
47482;DHT22;33219;47.410;9.730;2023-04-29T09:06:32;25.90;85.80
47482;DHT22;33219;47.410;9.730;2023-04-29T09:09:01;25.50;86.40
47482;DHT22;33219;47.410;9.730;2023-04-29T09:11:29;25.70;85.60
47482;DHT22;33219;47.410;9.730;2023-04-29T09:14:01;25.50;86.30
47482;DHT22;33219;47.410;9.730;2023-04-29T09:16:29;25.90;84.40
47482;DHT22;33219;47.410;9.730;2023-04-29T09:18:57;26.00;84.80
47482;DHT22;33219;47.410;9.730;2023-04-29T09:21:26;25.90;86.80
47482;DHT22;33219;47.410;9.730;2023-04-29T09:23:55;25.50;88.80
47482;DHT22;33219;47.410;9.730;2023-04-29T09:26:23;25.20;87.70
47482;DHT22;33219;47.410;9.730;2023-04-29T09:31:36;25.10;88.60
47482;DHT22;33219;47.410;9.730;2023-04-29T09:34:06;25.00;90.00
47482;DHT22;33219;47.410;9.730;2023-04-29T09:36:50;25.10;86.50
47482;DHT22;33219;47.410;9.730;2023-04-29T09:39:21;25.40;83.60
47482;DHT22;33219;47.410;9.730;2023-04-29T09:41:56;25.30;82.90
47482;DHT22;33219;47.410;9.730;2023-04-29T09:44:32;24.70;85.00
47482;DHT22;33219;47.410;9.730;2023-04-29T09:47:00;24.40;86.70
47482;DHT22;33219;47.410;9.730;2023-04-29T09:49:39;23.90;90.10
47482;DHT22;33219;47.410;9.730;2023-04-29T09:52:14;23.40;90.20
47482;DHT22;33219;47.410;9.730;2023-04-29T09:54:44;23.20;89.10
47482;DHT22;33219;47.410;9.730;2023-04-29T09:57:12;23.10;89.80
47482;DHT22;33219;47.410;9.730;2023-04-29T09:59:42;23.40;90.10
47482;DHT22;33219;47.410;9.730;2023-04-29T10:02:16;23.40;90.00
47482;DHT22;33219;47.410;9.730;2023-04-29T10:04:51;23.60;90.50
47482;DHT22;33219;47.410;9.730;2023-04-29T10:07:17;23.70;87.50
47482;DHT22;33219;47.410;9.730;2023-04-29T10:09:46;23.70;90.50
47482;DHT22;33219;47.410;9.730;2023-04-29T10:12:16;23.40;90.30
47482;DHT22;33219;47.410;9.730;2023-04-29T10:15:48;23.50;90.00
47482;DHT22;33219;47.410;9.730;2023-04-29T10:17:44;23.50;90.00
47482;DHT22;33219;47.410;9.730;2023-04-29T10:20:23;23.50;91.60
47482;DHT22;33219;47.410;9.730;2023-04-29T10:22:52;23.20;91.20
47482;DHT22;33219;47.410;9.730;2023-04-29T10:25:23;22.90;90.30
47482;DHT22;33219;47.410;9.730;2023-04-29T10:27:51;22.50;92.30
47482;DHT22;33219;47.410;9.730;2023-04-29T10:30:19;22.20;92.00
47482;DHT22;33219;47.410;9.730;2023-04-29T10:32:49;22.30;92.50
47482;DHT22;33219;47.410;9.730;2023-04-29T10:35:18;22.10;92.60
47482;DHT22;33219;47.410;9.730;2023-04-29T10:37:48;22.20;93.40
47482;DHT22;33219;47.410;9.730;2023-04-29T10:42:50;22.00;94.40
47482;DHT22;33219;47.410;9.730;2023-04-29T10:45:31;21.90;94.70
47482;DHT22;33219;47.410;9.730;2023-04-29T10:48:08;21.90;94.30
47482;DHT22;33219;47.410;9.730;2023-04-29T10:53:17;21.90;93.60
47482;DHT22;33219;47.410;9.730;2023-04-29T10:55:53;22.10;93.00
47482;DHT22;33219;47.410;9.730;2023-04-29T10:58:42;22.00;94.30
47482;DHT22;33219;47.410;9.730;2023-04-29T11:01:11;22.00;94.80
47482;DHT22;33219;47.410;9.730;2023-04-29T11:03:50;22.00;94.80
47482;DHT22;33219;47.410;9.730;2023-04-29T11:06:23;22.20;94.60
47482;DHT22;33219;47.410;9.730;2023-04-29T11:09:18;22.20;94.30
47482;DHT22;33219;47.410;9.730;2023-04-29T11:17:03;22.40;92.50
47482;DHT22;33219;47.410;9.730;2023-04-29T11:19:34;22.50;91.20
47482;DHT22;33219;47.410;9.730;2023-04-29T11:22:10;22.10;92.50
47482;DHT22;33219;47.410;9.730;2023-04-29T11:27:23;21.90;90.90
47482;DHT22;33219;47.410;9.730;2023-04-29T11:29:55;21.90;91.30
47482;DHT22;33219;47.410;9.730;2023-04-29T11:32:25;21.80;91.50
47482;DHT22;33219;47.410;9.730;2023-04-29T11:34:53;21.70;92.80
47482;DHT22;33219;47.410;9.730;2023-04-29T11:37:22;21.60;92.60
47482;DHT22;33219;47.410;9.730;2023-04-29T11:39:56;21.70;94.20
47482;DHT22;33219;47.410;9.730;2023-04-29T11:42:21;21.70;95.20
47482;DHT22;33219;47.410;9.730;2023-04-29T11:44:50;21.80;94.40
47482;DHT22;33219;47.410;9.730;2023-04-29T11:47:19;22.00;93.60
47482;DHT22;33219;47.410;9.730;2023-04-29T11:49:49;22.40;92.70
47482;DHT22;33219;47.410;9.730;2023-04-29T11:52:17;22.40;91.20
47482;DHT22;33219;47.410;9.730;2023-04-29T11:54:46;22.30;91.70
47482;DHT22;33219;47.410;9.730;2023-04-29T11:57:13;22.10;92.60
47482;DHT22;33219;47.410;9.730;2023-04-29T11:59:42;22.10;91.20
47482;DHT22;33219;47.410;9.730;2023-04-29T12:02:11;22.30;91.90
47482;DHT22;33219;47.410;9.730;2023-04-29T12:04:45;22.40;90.10
47482;DHT22;33219;47.410;9.730;2023-04-29T12:07:16;22.40;91.40
47482;DHT22;33219;47.410;9.730;2023-04-29T12:09:44;22.60;91.40
47482;DHT22;33219;47.410;9.730;2023-04-29T12:12:14;22.80;90.80
47482;DHT22;33219;47.410;9.730;2023-04-29T12:14:42;22.80;90.70
47482;DHT22;33219;47.410;9.730;2023-04-29T12:17:11;22.70;90.50
47482;DHT22;33219;47.410;9.730;2023-04-29T12:19:39;22.60;89.90
47482;DHT22;33219;47.410;9.730;2023-04-29T12:22:08;22.50;90.80
47482;DHT22;33219;47.410;9.730;2023-04-29T12:24:36;22.40;91.10
47482;DHT22;33219;47.410;9.730;2023-04-29T12:27:09;22.30;92.20
47482;DHT22;33219;47.410;9.730;2023-04-29T12:29:38;22.50;92.10
47482;DHT22;33219;47.410;9.730;2023-04-29T12:32:17;22.40;91.30
47482;DHT22;33219;47.410;9.730;2023-04-29T12:34:44;22.60;89.90
47482;DHT22;33219;47.410;9.730;2023-04-29T12:37:12;22.80;89.20
47482;DHT22;33219;47.410;9.730;2023-04-29T12:39:40;22.80;90.30
47482;DHT22;33219;47.410;9.730;2023-04-29T12:42:15;22.90;89.40
47482;DHT22;33219;47.410;9.730;2023-04-29T12:44:46;22.80;84.90
47482;DHT22;33219;47.410;9.730;2023-04-29T12:47:14;22.60;84.40
47482;DHT22;33219;47.410;9.730;2023-04-29T12:49:44;22.50;84.80
47482;DHT22;33219;47.410;9.730;2023-04-29T12:52:12;22.50;86.10
47482;DHT22;33219;47.410;9.730;2023-04-29T12:54:40;22.50;86.60
47482;DHT22;33219;47.410;9.730;2023-04-29T12:57:09;22.40;87.40
47482;DHT22;33219;47.410;9.730;2023-04-29T12:59:37;22.50;85.60
47482;DHT22;33219;47.410;9.730;2023-04-29T13:02:06;22.50;84.50
47482;DHT22;33219;47.410;9.730;2023-04-29T13:04:34;22.50;83.90
47482;DHT22;33219;47.410;9.730;2023-04-29T13:07:02;22.30;87.00
47482;DHT22;33219;47.410;9.730;2023-04-29T13:09:30;22.40;89.40
47482;DHT22;33219;47.410;9.730;2023-04-29T13:11:58;22.40;86.90
47482;DHT22;33219;47.410;9.730;2023-04-29T13:14:25;22.50;86.90
47482;DHT22;33219;47.410;9.730;2023-04-29T13:16:53;22.40;88.40
47482;DHT22;33219;47.410;9.730;2023-04-29T13:19:21;22.50;88.70
47482;DHT22;33219;47.410;9.730;2023-04-29T13:21:48;22.30;88.60
47482;DHT22;33219;47.410;9.730;2023-04-29T13:24:16;22.30;89.50
47482;DHT22;33219;47.410;9.730;2023-04-29T13:26:45;22.40;90.40
47482;DHT22;33219;47.410;9.730;2023-04-29T13:29:13;22.50;88.60
47482;DHT22;33219;47.410;9.730;2023-04-29T13:31:41;22.50;88.40
47482;DHT22;33219;47.410;9.730;2023-04-29T13:34:09;22.60;87.90
47482;DHT22;33219;47.410;9.730;2023-04-29T13:36:37;22.70;89.10
47482;DHT22;33219;47.410;9.730;2023-04-29T13:39:04;22.70;87.70
47482;DHT22;33219;47.410;9.730;2023-04-29T13:41:32;22.50;90.50
47482;DHT22;33219;47.410;9.730;2023-04-29T13:44:00;22.40;90.00
47482;DHT22;33219;47.410;9.730;2023-04-29T13:46:28;22.40;90.00
47482;DHT22;33219;47.410;9.730;2023-04-29T13:48:55;22.40;90.70
47482;DHT22;33219;47.410;9.730;2023-04-29T13:51:23;22.20;89.70
47482;DHT22;33219;47.410;9.730;2023-04-29T13:53:50;22.00;90.00
47482;DHT22;33219;47.410;9.730;2023-04-29T13:56:18;21.90;90.70
47482;DHT22;33219;47.410;9.730;2023-04-29T13:58:49;21.70;91.00
47482;DHT22;33219;47.410;9.730;2023-04-29T14:01:16;21.70;91.50
47482;DHT22;33219;47.410;9.730;2023-04-29T14:03:44;21.50;91.50
47482;DHT22;33219;47.410;9.730;2023-04-29T14:06:12;21.50;91.40
47482;DHT22;33219;47.410;9.730;2023-04-29T14:08:39;21.30;90.80
47482;DHT22;33219;47.410;9.730;2023-04-29T14:11:07;21.10;91.20
47482;DHT22;33219;47.410;9.730;2023-04-29T14:13:35;21.20;90.90
47482;DHT22;33219;47.410;9.730;2023-04-29T14:16:02;21.20;91.10
47482;DHT22;33219;47.410;9.730;2023-04-29T14:18:31;21.40;91.50
47482;DHT22;33219;47.410;9.730;2023-04-29T14:20:59;21.60;90.70
47482;DHT22;33219;47.410;9.730;2023-04-29T14:23:27;21.70;90.70
47482;DHT22;33219;47.410;9.730;2023-04-29T14:25:54;21.90;90.20
47482;DHT22;33219;47.410;9.730;2023-04-29T14:28:22;22.10;90.50
47482;DHT22;33219;47.410;9.730;2023-04-29T14:30:50;22.10;90.10
47482;DHT22;33219;47.410;9.730;2023-04-29T14:33:17;22.10;89.20
47482;DHT22;33219;47.410;9.730;2023-04-29T14:35:45;21.90;88.20
47482;DHT22;33219;47.410;9.730;2023-04-29T14:38:12;21.70;89.60
47482;DHT22;33219;47.410;9.730;2023-04-29T14:40:40;21.70;90.00
47482;DHT22;33219;47.410;9.730;2023-04-29T14:43:07;21.70;88.40
47482;DHT22;33219;47.410;9.730;2023-04-29T14:45:35;21.70;89.70
47482;DHT22;33219;47.410;9.730;2023-04-29T14:48:03;21.60;89.80
47482;DHT22;33219;47.410;9.730;2023-04-29T14:50:31;21.80;88.90
47482;DHT22;33219;47.410;9.730;2023-04-29T14:52:58;21.90;89.60
47482;DHT22;33219;47.410;9.730;2023-04-29T14:55:26;21.80;89.20
47482;DHT22;33219;47.410;9.730;2023-04-29T14:57:54;21.80;89.90
47482;DHT22;33219;47.410;9.730;2023-04-29T15:00:22;21.70;90.30
47482;DHT22;33219;47.410;9.730;2023-04-29T15:02:49;21.50;90.20
47482;DHT22;33219;47.410;9.730;2023-04-29T15:05:19;21.50;90.60
47482;DHT22;33219;47.410;9.730;2023-04-29T15:07:46;21.40;90.70
47482;DHT22;33219;47.410;9.730;2023-04-29T15:10:14;21.30;91.10
47482;DHT22;33219;47.410;9.730;2023-04-29T15:12:42;21.20;91.50
47482;DHT22;33219;47.410;9.730;2023-04-29T15:15:09;21.00;92.30
47482;DHT22;33219;47.410;9.730;2023-04-29T15:17:37;20.90;92.70
47482;DHT22;33219;47.410;9.730;2023-04-29T15:20:05;20.90;92.80
47482;DHT22;33219;47.410;9.730;2023-04-29T15:22:33;20.80;93.40
47482;DHT22;33219;47.410;9.730;2023-04-29T15:25:01;20.90;93.00
47482;DHT22;33219;47.410;9.730;2023-04-29T15:27:28;20.80;93.50
47482;DHT22;33219;47.410;9.730;2023-04-29T15:29:56;20.80;94.10
47482;DHT22;33219;47.410;9.730;2023-04-29T15:32:23;20.70;93.50
47482;DHT22;33219;47.410;9.730;2023-04-29T15:34:53;20.90;93.10
47482;DHT22;33219;47.410;9.730;2023-04-29T15:37:21;21.00;92.50
47482;DHT22;33219;47.410;9.730;2023-04-29T15:39:49;21.00;91.00
47482;DHT22;33219;47.410;9.730;2023-04-29T15:42:16;21.00;91.20
47482;DHT22;33219;47.410;9.730;2023-04-29T15:44:44;21.10;90.80
47482;DHT22;33219;47.410;9.730;2023-04-29T15:47:12;21.10;90.50
47482;DHT22;33219;47.410;9.730;2023-04-29T15:49:41;21.20;90.60
47482;DHT22;33219;47.410;9.730;2023-04-29T15:52:09;21.20;91.60
47482;DHT22;33219;47.410;9.730;2023-04-29T15:54:36;21.10;93.10
47482;DHT22;33219;47.410;9.730;2023-04-29T15:57:04;21.20;92.00
47482;DHT22;33219;47.410;9.730;2023-04-29T15:59:32;21.10;91.30
47482;DHT22;33219;47.410;9.730;2023-04-29T16:01:59;21.10;91.30
47482;DHT22;33219;47.410;9.730;2023-04-29T16:04:28;21.00;91.60